Huesca, Spain
Current Conditions -  °F | °C
As of 4:00 PM on Saturday 25 Oct 2014 (Local Time) from LEHC Reporting Station
Clear Clear  
Wind Chill: 81°   Ceiling: Unl
Heat Index: 81°   Visibility: 6mi
Dew Point: 41°   Wind: 14mph
Humidity: 24%   Direction: 270°W
Pressure: 30.12"   Gusts: NA
Location:  42.14°N, 0.41°W
Report Text: LEHC 251400Z 27012KT 240V300 CAVOK 27/05 Q1020
Loading
Personal Weather Stations






























Interactive Weather Map New forecast layout! Learn more

10-Day Weather Forecast

Advertisements
Track Severe Weather on mobile